Flight Track Log - Related Links

Times and Time Zones

All times are in EDT time to prevent confusion due to time zone crossing. See the CNS22 flight status page for this flight to view local times or setup timezone preferences in your user account.

Time Position Orientation Groundspeed Altitude Reporting Facility
EDT Latitude Longitude Course Direction KTS MPH feet Rate Location/Type
Sun 08:11:09 AM 25.3467 -77.9717 318° Northwest 247 284 13,600  Level Miami Center
Sun 08:12:09 AM 25.3756 -78.0181 305° West 211 243 14,600 950 Climbing Miami Center
Sun 08:13:09 AM 25.4086 -78.0667 307° West 195 224 15,500 850 Climbing Miami Center
Sun 08:14:09 AM 25.4375 -78.1153 303° West 195 224 16,300 500 Climbing Miami Center
Sun 08:15:09 AM 25.4706 -78.1686 304° West 195 224 16,500 100 Climbing Miami Center
Sun 08:16:00 AM 25.2573 -77.7739 318° Northwest  Level FlightAware Approximate
Sun 08:16:09 AM 25.5097 -78.2267 307° West 212 244 16,500  Level Miami Center
Sun 08:17:09 AM 25.5489 -78.2892 305° West 234 269 16,500  Level Miami Center
Sun 08:18:09 AM 25.5900 -78.3494 307° West 247 284 16,500  Level Miami Center
Sun 08:19:09 AM 25.6292 -78.4122 305° West 247 284 16,500  Level Miami Center
Sun 08:20:09 AM 25.6703 -78.4728 307° West 247 284 16,500 -100 Level Miami Center
Sun 08:21:09 AM 25.7050 -78.5356 302° West 247 284 16,300 -350 Descending Miami Center
Sun 08:22:09 AM 25.7461 -78.5961 307° West 242 278 15,800 -500 Descending Miami Center
Sun 08:23:09 AM 25.7808 -78.6589 302° West 242 278 15,300 -500 Descending Miami Center
Sun 08:24:09 AM 25.8219 -78.7194 307° West 242 278 14,800 -400 Descending Miami Center
Sun 08:25:09 AM 25.8567 -78.7800 303° West 242 278 14,500 -150 Descending Miami Center
Sun 08:26:09 AM 25.8975 -78.8431 306° West 242 278 14,500  Level Miami Center
Sun 08:27:09 AM 25.9325 -78.8944 307° West 242 278 14,500  Level Miami Center
Sun 08:28:09 AM 25.9711 -78.9553 305° West 242 278 14,500 -50 Level Miami Center
Sun 08:29:09 AM 26.0100 -79.0114 308° West 242 278 14,400 -50 Descending Miami Center
Sun 08:30:09 AM 26.0489 -79.0722 305° West 242 278 14,400 -200 Level Miami Center
Sun 08:31:09 AM 26.0897 -79.1356 306° West 247 284 14,000 -450 Descending Miami Center
Sun 08:32:09 AM 26.1283 -79.1986 304° West 247 284 13,500 -550 Descending Miami Center
Sun 08:33:09 AM 26.1672 -79.2597 305° West 242 278 12,900 -550 Descending Miami Center
Sun 08:34:09 AM 26.2078 -79.3231 306° West 247 284 12,400 -550 Descending Miami Center
Sun 08:35:09 AM 26.2444 -79.3839 304° West 247 284 11,800 -650 Descending Miami Center
Sun 08:36:09 AM 26.2828 -79.4542 301° West 242 278 11,100 -650 Descending Miami Center
Sun 08:37:09 AM 26.3194 -79.5083 307° West 248 285 10,500 -750 Descending Miami Center
Sun 08:38:09 AM 26.3622 -79.5789 304° West 248 285 9,600 -950 Descending Miami Center
Sun 08:39:09 AM 26.3944 -79.6331 304° West 243 280 8,600 -1,100 Descending Miami Center
Sun 08:40:09 AM 26.4392 -79.7036 305° West 243 280 7,400 -1,050 Descending Miami Center
Sun 08:41:09 AM 26.4714 -79.7578 304° West 243 280 6,500 -500 Descending Miami Center
Sun 08:42:09 AM 26.5203 -79.8169 313° West 243 280 6,400 -500 Descending Miami Center
Sun 08:43:09 AM 26.5656 -79.8600 320° Northwest 237 273 5,500 -1,150 Descending Miami Center
Sun 08:44:09 AM 26.6186 -79.9125 319° Northwest 237 273 4,100 -1,600 Descending Miami Center
Sun 08:45:09 AM 26.6639 -79.9461 326° Northwest 227 261 2,300 -1,250 Descending Miami Center
Sun 08:46:09 AM 26.6775 -79.9975 287° West 169 194 1,600 -650 Descending Miami Center
Sun 08:47:09 AM 26.6789 -80.0325 273° West 141 162 1,000 -600 Descending Miami Center
Sun 08:49:00 AM 26.6667 -80.0833 North  Level FlightAware Approximate
Sun 08:56:00 AM 26.6832 -80.0956 North  Level Estimated
Sun 08:57:00 AM 26.6832 -80.0956 North  Level Estimated

Login

Don't have an account? Register now (free) for customized features, flight alerts, and more!